Aviation Digital Data Service (ADDS)

Output produced by TAFs form (1005 UTC 23 October 2017)
found at http://aviationweather.gov/adds/tafs/
 
KABQ 230520Z 2306/2406 01007KT P6SM FEW250 
     FM231600 32007KT P6SM FEW250 
     FM232000 34012G18KT P6SM SCT250 
     FM240200 03012KT P6SM SCT250